createdAt,value
2019-05-01T00:02:10.122Z,5.50
2019-05-01T00:04:47.721Z,5.30
2019-05-01T00:07:19.304Z,5.40
2019-05-01T00:09:49.311Z,4.93
2019-05-01T00:12:19.720Z,5.60
2019-05-01T00:14:49.809Z,5.60
2019-05-01T00:17:21.547Z,5.40
2019-05-01T00:19:51.382Z,6.43
2019-05-01T00:22:21.248Z,7.27
2019-05-01T00:24:51.105Z,7.13
2019-05-01T00:27:20.979Z,7.00
2019-05-01T00:29:51.146Z,8.47
2019-05-01T00:32:22.082Z,8.13
2019-05-01T00:34:52.083Z,6.47
2019-05-01T00:37:21.991Z,5.50
2019-05-01T00:39:51.850Z,5.17
2019-05-01T00:42:21.827Z,5.07
2019-05-01T00:44:51.676Z,4.90
2019-05-01T00:47:21.672Z,5.03
2019-05-01T00:49:51.592Z,6.03
2019-05-01T00:52:21.447Z,6.20
2019-05-01T00:54:53.423Z,6.03
2019-05-01T00:57:32.409Z,6.27
2019-05-01T01:00:10.462Z,6.77
2019-05-01T01:02:42.043Z,7.13
2019-05-01T01:05:11.975Z,7.10
2019-05-01T01:07:41.987Z,7.17
2019-05-01T01:10:12.267Z,6.90
2019-05-01T01:12:42.099Z,7.13
2019-05-01T01:15:12.443Z,7.63
2019-05-01T01:17:42.437Z,7.90
2019-05-01T01:20:12.814Z,7.43
2019-05-01T01:22:42.952Z,7.23
2019-05-01T01:25:13.399Z,7.73
2019-05-01T01:27:43.476Z,6.93
2019-05-01T01:30:15.653Z,7.37
2019-05-01T01:32:45.493Z,6.70
2019-05-01T01:35:15.459Z,6.63
2019-05-01T01:37:45.373Z,6.67
2019-05-01T01:40:16.513Z,6.70
2019-05-01T01:42:48.352Z,6.90
2019-05-01T01:45:20.075Z,6.17
2019-05-01T01:48:09.911Z,7.10
2019-05-01T01:50:42.860Z,6.60
2019-05-01T01:53:15.051Z,6.90
2019-05-01T01:55:46.673Z,7.43
2019-05-01T01:58:17.559Z,6.93
2019-05-01T02:01:09.689Z,6.80
2019-05-01T02:03:39.551Z,6.40
2019-05-01T02:06:09.621Z,6.13
2019-05-01T02:08:39.923Z,6.67
2019-05-01T02:11:09.917Z,6.80
2019-05-01T02:13:40.068Z,6.73
2019-05-01T02:16:09.974Z,7.13
2019-05-01T02:18:40.050Z,7.07
2019-05-01T02:21:10.006Z,6.90
2019-05-01T02:23:39.978Z,6.43
2019-05-01T02:26:11.712Z,6.83
2019-05-01T02:28:53.174Z,7.17
2019-05-01T02:31:35.790Z,6.20
2019-05-01T02:34:06.895Z,7.23
2019-05-01T02:36:38.395Z,6.77
2019-05-01T02:39:09.683Z,6.40
2019-05-01T02:41:42.699Z,6.47
2019-05-01T02:44:18.600Z,7.13
2019-05-01T02:46:50.979Z,7.80
2019-05-01T02:49:36.071Z,7.00
2019-05-01T02:52:09.041Z,7.63
2019-05-01T02:54:40.703Z,7.73
2019-05-01T02:57:12.573Z,7.57
2019-05-01T02:59:45.771Z,7.43
2019-05-01T03:02:17.246Z,8.13
2019-05-01T03:04:47.931Z,7.70
2019-05-01T03:07:19.961Z,7.70
2019-05-01T03:09:51.486Z,7.93
2019-05-01T03:12:24.622Z,8.47
2019-05-01T03:14:57.405Z,8.80
2019-05-01T03:17:44.972Z,8.70
2019-05-01T03:20:26.647Z,8.37
2019-05-01T03:23:13.752Z,8.50
2019-05-01T03:25:43.920Z,8.40
2019-05-01T03:28:14.219Z,8.33
2019-05-01T03:30:44.747Z,8.43
2019-05-01T03:33:14.726Z,8.30
2019-05-01T03:35:44.734Z,8.13
2019-05-01T03:38:15.015Z,8.07
2019-05-01T03:40:45.243Z,8.10
2019-05-01T03:43:15.392Z,7.77
2019-05-01T03:45:45.475Z,7.63
2019-05-01T03:48:15.781Z,8.53
2019-05-01T03:50:47.123Z,8.20
2019-05-01T03:53:18.549Z,7.97
2019-05-01T03:55:48.976Z,8.27
2019-05-01T03:58:19.522Z,8.07
2019-05-01T04:00:51.281Z,7.97
2019-05-01T04:03:35.375Z,7.83
2019-05-01T04:06:06.362Z,7.83
2019-05-01T04:08:37.121Z,8.43
2019-05-01T04:11:07.319Z,7.87
2019-05-01T04:13:37.668Z,7.43
2019-05-01T04:16:08.635Z,8.50
2019-05-01T04:18:39.437Z,8.63
2019-05-01T04:21:09.871Z,8.70
2019-05-01T04:23:42.191Z,8.60
2019-05-01T04:26:12.473Z,8.60
2019-05-01T04:28:53.604Z,8.50
2019-05-01T04:31:25.900Z,7.67
2019-05-01T04:33:57.387Z,9.00
2019-05-01T04:36:29.123Z,8.00
2019-05-01T04:39:11.067Z,7.87
2019-05-01T04:41:41.017Z,8.07
2019-05-01T04:44:11.381Z,8.77
2019-05-01T04:46:41.343Z,8.30
2019-05-01T04:49:11.838Z,7.37
2019-05-01T04:51:42.179Z,7.43
2019-05-01T04:54:12.713Z,7.67
2019-05-01T04:56:43.402Z,7.47
2019-05-01T04:59:14.283Z,7.43
2019-05-01T05:01:58.334Z,6.73
2019-05-01T05:04:30.016Z,6.80
2019-05-01T05:07:01.194Z,7.27
2019-05-01T05:09:42.188Z,7.70
2019-05-01T05:12:17.333Z,6.43
2019-05-01T05:14:58.456Z,7.20
2019-05-01T05:17:28.846Z,7.10
2019-05-01T05:19:58.985Z,6.87
2019-05-01T05:22:30.256Z,6.63
2019-05-01T05:25:00.604Z,7.33
2019-05-01T05:27:30.806Z,7.77
2019-05-01T05:30:01.488Z,7.30
2019-05-01T05:32:33.565Z,7.57
2019-05-01T05:35:05.967Z,6.90
2019-05-01T05:37:58.073Z,7.90
2019-05-01T05:40:32.355Z,7.63
2019-05-01T05:43:04.498Z,8.23
2019-05-01T05:45:34.836Z,8.63
2019-05-01T05:48:05.087Z,8.30
2019-05-01T05:50:41.268Z,8.50
2019-05-01T05:53:15.838Z,8.33
2019-05-01T05:56:01.959Z,7.53
2019-05-01T05:58:36.569Z,7.83
2019-05-01T06:01:25.380Z,8.20
2019-05-01T06:04:17.090Z,8.07
2019-05-01T06:06:54.390Z,7.90
2019-05-01T06:09:29.047Z,8.67
2019-05-01T06:12:08.963Z,7.23
2019-05-01T06:15:02.278Z,6.80
2019-05-01T06:17:42.994Z,7.67
2019-05-01T06:20:27.699Z,7.43
2019-05-01T06:23:04.261Z,8.47
2019-05-01T06:25:37.830Z,8.60
2019-05-01T06:28:09.668Z,8.63
2019-05-01T06:30:41.934Z,8.60
2019-05-01T06:33:12.490Z,7.93
2019-05-01T06:35:42.589Z,8.50
2019-05-01T06:38:15.713Z,8.87
2019-05-01T06:40:48.105Z,9.30
2019-05-01T06:43:25.368Z,8.53
2019-05-01T06:45:56.296Z,9.30
2019-05-01T06:48:28.227Z,8.93
2019-05-01T06:50:59.784Z,9.40
2019-05-01T06:53:29.877Z,9.00
2019-05-01T06:56:00.012Z,38.23
2019-05-01T06:58:32.712Z,12.43
2019-05-01T07:01:01.666Z,10.80
2019-05-01T07:03:31.872Z,9.37
2019-05-01T07:06:13.791Z,9.97
2019-05-01T07:08:34.463Z,10.20
2019-05-01T07:11:05.853Z,10.40
2019-05-01T07:13:40.136Z,10.53
2019-05-01T07:16:09.120Z,10.33
2019-05-01T07:18:39.322Z,10.30
2019-05-01T07:21:09.280Z,11.73
2019-05-01T07:23:39.333Z,10.73
2019-05-01T07:26:09.968Z,10.83
2019-05-01T07:28:42.705Z,11.37
2019-05-01T07:31:14.473Z,12.70
2019-05-01T07:33:46.980Z,12.23
2019-05-01T07:36:18.383Z,12.60
2019-05-01T07:38:48.669Z,12.70
2019-05-01T07:41:18.595Z,13.40
2019-05-01T07:44:06.955Z,15.10
2019-05-01T07:46:38.577Z,13.77
2019-05-01T07:49:12.982Z,14.77
2019-05-01T07:51:43.410Z,15.77
2019-05-01T07:54:13.569Z,16.40
2019-05-01T07:56:44.997Z,18.37
2019-05-01T07:59:15.183Z,18.83
2019-05-01T08:01:49.944Z,18.03
2019-05-01T08:04:26.849Z,18.30
2019-05-01T08:06:52.006Z,18.63
2019-05-01T08:09:21.479Z,18.77
2019-05-01T08:11:51.402Z,21.30
2019-05-01T08:14:21.334Z,20.13
2019-05-01T08:16:51.393Z,20.93
2019-05-01T08:19:40.718Z,20.80
2019-05-01T08:22:12.361Z,18.77
2019-05-01T08:24:42.275Z,20.63
2019-05-01T08:27:15.724Z,20.03
2019-05-01T08:29:54.239Z,21.30
2019-05-01T08:32:33.740Z,21.70
2019-05-01T08:35:05.754Z,21.57
2019-05-01T08:37:35.707Z,20.77
2019-05-01T08:40:07.316Z,20.33
2019-05-01T08:42:42.728Z,21.50
2019-05-01T08:45:14.615Z,21.17
2019-05-01T08:48:01.516Z,22.67
2019-05-01T08:50:31.689Z,22.10
2019-05-01T08:53:01.567Z,22.60
2019-05-01T08:55:32.772Z,22.63
2019-05-01T08:58:02.747Z,23.37
2019-05-01T09:00:36.432Z,23.73
2019-05-01T09:03:08.707Z,26.20
2019-05-01T09:05:36.233Z,24.80
2019-05-01T09:08:06.302Z,23.53
2019-05-01T09:10:36.353Z,24.57
2019-05-01T09:13:06.594Z,26.60
2019-05-01T09:15:36.636Z,25.67
2019-05-01T09:18:06.808Z,23.53
2019-05-01T09:20:38.795Z,24.53
2019-05-01T09:23:09.537Z,23.83
2019-05-01T09:25:54.497Z,23.87
2019-05-01T09:28:29.518Z,23.90
2019-05-01T09:31:02.090Z,23.20
2019-05-01T09:33:34.084Z,23.17
2019-05-01T09:36:04.252Z,22.63
2019-05-01T09:38:35.189Z,22.17
2019-05-01T09:41:05.531Z,21.47
2019-05-01T09:43:36.902Z,21.77
2019-05-01T09:46:07.153Z,22.67
2019-05-01T09:48:37.151Z,23.13
2019-05-01T09:51:17.961Z,24.43
2019-05-01T09:53:52.497Z,22.13
2019-05-01T09:56:24.050Z,23.63
2019-05-01T09:58:54.876Z,25.17
2019-05-01T10:01:31.679Z,25.07
2019-05-01T10:03:57.178Z,24.47
2019-05-01T10:06:27.214Z,22.70
2019-05-01T10:08:57.163Z,23.30
2019-05-01T10:11:27.028Z,23.70
2019-05-01T10:13:58.551Z,23.93
2019-05-01T10:16:28.542Z,22.10
2019-05-01T10:18:58.488Z,23.87
2019-05-01T10:21:28.965Z,23.73
2019-05-01T10:23:58.979Z,22.20
2019-05-01T10:26:33.066Z,22.77
2019-05-01T10:29:25.936Z,21.93
2019-05-01T10:32:21.520Z,20.73
2019-05-01T10:34:56.868Z,20.50
2019-05-01T10:37:28.614Z,21.97
2019-05-01T10:40:01.365Z,22.43
2019-05-01T10:42:31.711Z,23.77
2019-05-01T10:45:01.766Z,21.90
2019-05-01T10:47:31.818Z,24.27
2019-05-01T10:50:04.108Z,20.57
2019-05-01T10:52:37.142Z,20.67
2019-05-01T10:55:10.233Z,20.70
2019-05-01T10:57:42.214Z,21.87
2019-05-01T11:00:14.103Z,19.73
2019-05-01T11:02:44.043Z,19.47
2019-05-01T11:05:14.065Z,22.90
2019-05-01T11:07:45.751Z,23.00
2019-05-01T11:10:16.037Z,22.40
2019-05-01T11:12:45.971Z,21.60
2019-05-01T11:15:16.297Z,21.20
2019-05-01T11:17:46.712Z,23.37
2019-05-01T11:20:16.673Z,23.23
2019-05-01T11:22:46.644Z,25.07
2019-05-01T11:25:18.093Z,25.57
2019-05-01T11:27:48.190Z,22.70
2019-05-01T11:30:18.187Z,23.50
2019-05-01T11:33:01.753Z,22.27
2019-05-01T11:35:49.818Z,24.37
2019-05-01T11:38:24.105Z,26.87
2019-05-01T11:41:04.760Z,25.90
2019-05-01T11:43:34.651Z,24.17
2019-05-01T11:46:04.820Z,23.07
2019-05-01T11:48:34.771Z,23.30
2019-05-01T11:51:04.879Z,23.60
2019-05-01T11:53:34.743Z,23.23
2019-05-01T11:56:05.444Z,23.57
2019-05-01T11:58:35.329Z,24.50
2019-05-01T12:01:05.897Z,21.50
2019-05-01T12:03:35.907Z,22.37
2019-05-01T12:06:05.836Z,24.50
2019-05-01T12:08:35.735Z,24.47
2019-05-01T12:11:07.488Z,24.43
2019-05-01T12:13:43.939Z,25.27
2019-05-01T12:16:22.816Z,24.97
2019-05-01T12:18:52.765Z,25.97
2019-05-01T12:21:22.761Z,25.23
2019-05-01T12:23:52.624Z,24.37
2019-05-01T12:26:23.572Z,23.43
2019-05-01T12:28:53.503Z,25.77
2019-05-01T12:31:23.427Z,22.30
2019-05-01T12:33:53.380Z,25.03
2019-05-01T12:36:35.157Z,21.60
2019-05-01T12:38:54.827Z,21.50
2019-05-01T12:41:29.397Z,20.10
2019-05-01T12:43:59.286Z,22.80
2019-05-01T12:46:40.127Z,21.20
2019-05-01T12:49:10.092Z,22.67
2019-05-01T12:51:41.514Z,23.40
2019-05-01T12:54:13.132Z,25.20
2019-05-01T12:56:47.579Z,25.87
2019-05-01T12:59:17.649Z,25.77
2019-05-01T13:01:47.615Z,22.77
2019-05-01T13:04:17.560Z,19.87
2019-05-01T13:06:51.831Z,21.63
2019-05-01T13:09:21.778Z,20.90
2019-05-01T13:11:51.911Z,19.60
2019-05-01T13:14:22.812Z,18.47
2019-05-01T13:16:52.713Z,18.83
2019-05-01T13:19:23.747Z,16.93
2019-05-01T13:21:53.695Z,15.93
2019-05-01T13:24:23.608Z,20.07
2019-05-01T13:26:55.223Z,17.47
2019-05-01T13:29:47.601Z,16.87
2019-05-01T13:32:45.055Z,16.30
2019-05-01T13:35:15.292Z,17.10
2019-05-01T13:37:45.188Z,17.73
2019-05-01T13:40:16.253Z,17.07
2019-05-01T13:42:46.265Z,17.90
2019-05-01T13:45:16.589Z,15.50
2019-05-01T13:47:46.515Z,16.43
2019-05-01T13:50:16.648Z,15.40
2019-05-01T13:52:46.957Z,15.90
2019-05-01T13:55:17.437Z,15.47
2019-05-01T13:57:47.511Z,14.87
2019-05-01T14:00:19.286Z,13.93
2019-05-01T14:02:50.104Z,14.43
2019-05-01T14:05:20.499Z,14.77
2019-05-01T14:07:50.584Z,14.97
2019-05-01T14:10:20.665Z,13.73
2019-05-01T14:12:50.829Z,14.00
2019-05-01T14:15:20.732Z,14.03
2019-05-01T14:17:50.698Z,15.23
2019-05-01T14:20:34.442Z,14.57
2019-05-01T14:23:06.191Z,14.33
2019-05-01T14:25:53.722Z,14.93
2019-05-01T14:28:23.601Z,14.27
2019-05-01T14:30:53.559Z,14.57
2019-05-01T14:33:23.430Z,12.13
2019-05-01T14:35:53.365Z,11.70
2019-05-01T14:38:24.460Z,10.50
2019-05-01T14:40:54.450Z,10.67
2019-05-01T14:43:24.505Z,10.47
2019-05-01T14:45:55.963Z,12.77
2019-05-01T14:48:26.114Z,13.47
2019-05-01T14:50:56.227Z,13.47
2019-05-01T14:53:26.111Z,12.00
2019-05-01T14:55:58.028Z,12.00
2019-05-01T14:58:28.120Z,13.10
2019-05-01T15:00:58.000Z,12.10
2019-05-01T15:03:28.649Z,11.67
2019-05-01T15:06:03.684Z,11.40
2019-05-01T15:08:33.683Z,11.47
2019-05-01T15:11:05.765Z,11.57
2019-05-01T15:13:46.372Z,11.40
2019-05-01T15:16:18.111Z,9.77
2019-05-01T15:19:05.600Z,9.73
2019-05-01T15:21:35.565Z,9.90
2019-05-01T15:24:05.775Z,8.87
2019-05-01T15:26:35.820Z,9.90
2019-05-01T15:29:05.883Z,8.47
2019-05-01T15:31:35.857Z,9.37
2019-05-01T15:34:05.884Z,9.13
2019-05-01T15:36:36.161Z,9.17
2019-05-01T15:39:10.271Z,9.20
2019-05-01T15:41:59.422Z,9.70
2019-05-01T15:44:30.981Z,9.83
2019-05-01T15:47:00.911Z,9.37
2019-05-01T15:49:30.840Z,9.07
2019-05-01T15:52:00.853Z,9.07
2019-05-01T15:54:30.722Z,9.70
2019-05-01T15:57:01.353Z,9.30
2019-05-01T15:59:43.427Z,10.07
2019-05-01T16:02:26.917Z,10.43
2019-05-01T16:05:01.117Z,9.87
2019-05-01T16:07:44.108Z,9.80
2019-05-01T16:10:19.297Z,10.00
2019-05-01T16:12:52.162Z,10.27
2019-05-01T16:15:24.155Z,10.27
2019-05-01T16:17:54.012Z,10.00
2019-05-01T16:20:23.920Z,10.20
2019-05-01T16:22:53.919Z,11.43
2019-05-01T16:25:23.979Z,9.83
2019-05-01T16:27:54.105Z,10.80
2019-05-01T16:30:27.227Z,9.93
2019-05-01T16:32:57.956Z,9.23
2019-05-01T16:35:31.848Z,8.97
2019-05-01T16:38:03.802Z,9.07
2019-05-01T16:40:46.032Z,8.67
2019-05-01T16:43:18.916Z,9.57
2019-05-01T16:45:50.221Z,9.83
2019-05-01T16:48:22.069Z,10.23
2019-05-01T16:50:52.853Z,9.90
2019-05-01T16:53:23.191Z,10.67
2019-05-01T16:55:53.460Z,10.67
2019-05-01T16:58:23.507Z,9.50
2019-05-01T17:00:56.564Z,9.80
2019-05-01T17:03:34.289Z,10.23
2019-05-01T17:06:15.344Z,10.47
2019-05-01T17:08:49.375Z,10.17
2019-05-01T17:11:21.042Z,9.90
2019-05-01T17:13:50.981Z,9.20
2019-05-01T17:16:23.182Z,9.93
2019-05-01T17:18:54.455Z,9.63
2019-05-01T17:21:24.316Z,10.20
2019-05-01T17:23:54.231Z,9.70
2019-05-01T17:26:24.728Z,9.33
2019-05-01T17:28:54.845Z,9.27
2019-05-01T17:31:27.649Z,9.83
2019-05-01T17:33:58.648Z,9.93
2019-05-01T17:36:28.516Z,10.00
2019-05-01T17:38:58.392Z,9.47
2019-05-01T17:41:28.666Z,9.73
2019-05-01T17:44:05.502Z,10.20
2019-05-01T17:46:41.791Z,9.43
2019-05-01T17:49:18.997Z,9.77
2019-05-01T17:51:51.404Z,10.77
2019-05-01T17:54:24.067Z,9.93
2019-05-01T17:56:56.225Z,10.07
2019-05-01T17:59:30.058Z,9.70
2019-05-01T18:02:10.124Z,10.10
2019-05-01T18:04:54.700Z,10.63
2019-05-01T18:07:33.193Z,11.60
2019-05-01T18:10:03.115Z,10.87
2019-05-01T18:12:36.463Z,11.23
2019-05-01T18:15:08.726Z,11.37
2019-05-01T18:17:44.305Z,11.40
2019-05-01T18:20:16.438Z,11.63
2019-05-01T18:22:58.011Z,11.70
2019-05-01T18:25:49.150Z,11.40
2019-05-01T18:28:29.953Z,15.40
2019-05-01T18:30:58.908Z,13.27
2019-05-01T18:33:30.710Z,13.10
2019-05-01T18:36:00.659Z,12.27
2019-05-01T18:38:34.964Z,12.70
2019-05-01T18:41:09.427Z,13.10
2019-05-01T18:43:39.472Z,13.53
2019-05-01T18:46:11.431Z,12.73
2019-05-01T18:48:41.560Z,12.57
2019-05-01T18:51:11.568Z,12.60
2019-05-01T18:53:41.966Z,13.67
2019-05-01T18:56:11.891Z,13.20
2019-05-01T18:58:42.110Z,14.20
2019-05-01T19:01:12.142Z,14.37
2019-05-01T19:03:42.709Z,13.60
2019-05-01T19:06:13.872Z,14.00
2019-05-01T19:08:43.827Z,15.10
2019-05-01T19:11:14.442Z,16.30
2019-05-01T19:13:44.428Z,17.37
2019-05-01T19:16:16.054Z,17.17
2019-05-01T19:18:48.819Z,17.20
2019-05-01T19:21:23.736Z,16.17
2019-05-01T19:24:00.605Z,15.00
2019-05-01T19:26:31.620Z,15.27
2019-05-01T19:29:03.742Z,15.37
2019-05-01T19:31:34.271Z,15.80
2019-05-01T19:34:04.530Z,17.63
2019-05-01T19:36:35.463Z,16.30
2019-05-01T19:39:11.807Z,14.83
2019-05-01T19:41:43.831Z,15.73
2019-05-01T19:44:18.842Z,14.87
2019-05-01T19:46:47.698Z,17.13
2019-05-01T19:49:17.746Z,16.50
2019-05-01T19:51:48.590Z,16.67
2019-05-01T19:54:23.157Z,16.27
2019-05-01T19:56:51.528Z,16.77
2019-05-01T19:59:22.335Z,16.90
2019-05-01T20:01:53.952Z,17.57
2019-05-01T20:04:26.096Z,19.40
2019-05-01T20:06:57.965Z,16.80
2019-05-01T20:09:28.296Z,15.77
2019-05-01T20:11:59.625Z,16.60
2019-05-01T20:14:30.443Z,15.77
2019-05-01T20:17:04.860Z,16.33
2019-05-01T20:19:33.455Z,16.93
2019-05-01T20:22:04.822Z,16.80
2019-05-01T20:24:39.738Z,17.10
2019-05-01T20:27:07.222Z,17.37
2019-05-01T20:29:37.345Z,18.20
2019-05-01T20:32:07.377Z,17.80
2019-05-01T20:34:39.271Z,17.33
2019-05-01T20:37:10.137Z,17.10
2019-05-01T20:39:41.473Z,17.83
2019-05-01T20:42:13.477Z,16.50
2019-05-01T20:44:44.086Z,17.67
2019-05-01T20:47:15.551Z,17.37
2019-05-01T20:49:46.119Z,17.87
2019-05-01T20:52:16.148Z,15.77
2019-05-01T20:54:46.128Z,17.27
2019-05-01T20:57:20.924Z,17.10
2019-05-01T20:59:49.310Z,21.03
2019-05-01T21:02:19.223Z,18.63
2019-05-01T21:04:53.559Z,18.83
2019-05-01T21:07:31.098Z,17.40
2019-05-01T21:10:02.608Z,18.17
2019-05-01T21:12:32.674Z,19.13
2019-05-01T21:15:02.979Z,18.80
2019-05-01T21:17:33.988Z,17.97
2019-05-01T21:20:05.858Z,18.50
2019-05-01T21:22:35.748Z,18.73
2019-05-01T21:25:06.299Z,19.77
2019-05-01T21:27:36.163Z,19.47
2019-05-01T21:30:09.403Z,19.87
2019-05-01T21:32:39.261Z,19.50
2019-05-01T21:35:09.135Z,19.60
2019-05-01T21:37:40.073Z,19.47
2019-05-01T21:40:10.178Z,20.23
2019-05-01T21:42:40.116Z,22.63
2019-05-01T21:45:12.303Z,22.30
2019-05-01T21:47:42.650Z,21.77
2019-05-01T21:50:13.325Z,21.07
2019-05-01T21:52:43.761Z,21.67
2019-05-01T21:55:13.864Z,21.67
2019-05-01T21:57:45.031Z,23.03
2019-05-01T22:00:20.005Z,22.10
2019-05-01T22:02:49.586Z,22.30
2019-05-01T22:05:20.521Z,21.50
2019-05-01T22:07:50.396Z,22.07
2019-05-01T22:10:21.626Z,21.57
2019-05-01T22:12:51.992Z,22.50
2019-05-01T22:15:27.432Z,22.90
2019-05-01T22:18:01.643Z,23.27
2019-05-01T22:20:36.451Z,22.67
2019-05-01T22:23:08.325Z,22.03
2019-05-01T22:25:42.555Z,22.93
2019-05-01T22:28:30.402Z,22.03
2019-05-01T22:31:01.984Z,22.33
2019-05-01T22:33:31.866Z,23.47
2019-05-01T22:36:01.802Z,22.77
2019-05-01T22:38:31.750Z,23.20
2019-05-01T22:41:07.265Z,22.87
2019-05-01T22:43:37.330Z,23.23
2019-05-01T22:46:09.061Z,23.23
2019-05-01T22:48:39.918Z,23.47
2019-05-01T22:51:11.480Z,22.97
2019-05-01T22:53:41.360Z,23.60
2019-05-01T22:56:11.214Z,23.10
2019-05-01T22:58:41.178Z,24.50
2019-05-01T23:01:13.218Z,22.93
2019-05-01T23:03:44.329Z,23.30
2019-05-01T23:06:14.898Z,23.47
2019-05-01T23:08:45.007Z,23.47
2019-05-01T23:11:20.164Z,23.10
2019-05-01T23:13:46.502Z,22.50
2019-05-01T23:16:18.076Z,23.47
2019-05-01T23:18:51.936Z,23.27
2019-05-01T23:21:19.711Z,23.17
2019-05-01T23:23:49.669Z,24.67
2019-05-01T23:26:19.666Z,23.80
2019-05-01T23:28:49.783Z,23.47
2019-05-01T23:31:20.127Z,23.27
2019-05-01T23:33:51.870Z,23.97
2019-05-01T23:36:23.685Z,23.83
2019-05-01T23:38:53.365Z,23.87
2019-05-01T23:41:44.622Z,23.60
2019-05-01T23:43:58.306Z,23.17
2019-05-01T23:46:26.364Z,23.73
2019-05-01T23:48:56.305Z,23.93
2019-05-01T23:51:28.715Z,24.07
2019-05-01T23:53:57.723Z,24.57
2019-05-01T23:56:31.026Z,23.97
2019-05-01T23:58:59.157Z,23.57
